createdAt,value
2019-02-19T00:00:13.474Z,0
2019-02-19T00:01:13.458Z,0
2019-02-19T00:02:13.194Z,0
2019-02-19T00:03:13.419Z,0
2019-02-19T00:04:13.166Z,0
2019-02-19T00:05:13.382Z,0
2019-02-19T00:06:13.384Z,0
2019-02-19T00:07:12.872Z,0
2019-02-19T00:08:13.341Z,0
2019-02-19T00:09:13.324Z,0
2019-02-19T00:10:13.054Z,0
2019-02-19T00:11:13.320Z,0
2019-02-19T00:12:13.264Z,0
2019-02-19T00:13:13.243Z,0
2019-02-19T00:14:13.255Z,0
2019-02-19T00:15:17.970Z,0
2019-02-19T00:16:13.271Z,0
2019-02-19T00:17:13.190Z,0
2019-02-19T00:18:12.716Z,0
2019-02-19T00:19:13.156Z,0
2019-02-19T00:20:13.136Z,0
2019-02-19T00:21:13.169Z,0
2019-02-19T00:22:13.096Z,0
2019-02-19T00:23:12.837Z,0
2019-02-19T00:24:13.074Z,0
2019-02-19T00:25:13.064Z,0
2019-02-19T00:26:13.034Z,0
2019-02-19T00:27:13.019Z,0
2019-02-19T00:28:12.762Z,0
2019-02-19T00:29:12.731Z,0
2019-02-19T00:30:12.752Z,0
2019-02-19T00:31:13.000Z,0
2019-02-19T00:32:12.952Z,0
2019-02-19T00:33:12.672Z,0
2019-02-19T00:34:12.913Z,0
2019-02-19T00:35:12.628Z,0
2019-02-19T00:36:14.438Z,0
2019-02-19T00:37:12.850Z,0
2019-02-19T00:38:13.320Z,0
2019-02-19T00:39:12.563Z,0
2019-02-19T00:40:12.794Z,0
2019-02-19T00:41:12.776Z,0
2019-02-19T00:42:12.792Z,0
2019-02-19T00:43:12.508Z,0
2019-02-19T00:44:12.730Z,0
2019-02-19T00:45:19.143Z,0
2019-02-19T00:46:12.691Z,0
2019-02-19T00:47:12.426Z,0
2019-02-19T00:48:12.660Z,0
2019-02-19T00:49:12.645Z,0
2019-02-19T00:50:12.653Z,0
2019-02-19T00:51:12.598Z,0
2019-02-19T00:52:12.580Z,0
2019-02-19T00:53:12.330Z,0
2019-02-19T00:54:12.074Z,0
2019-02-19T00:55:12.293Z,0
2019-02-19T00:56:12.525Z,0
2019-02-19T00:57:12.523Z,0
2019-02-19T00:58:12.484Z,0
2019-02-19T00:59:12.473Z,0
2019-02-19T01:00:12.469Z,0
2019-02-19T01:01:11.943Z,0
2019-02-19T01:02:12.428Z,0
2019-02-19T01:03:12.402Z,0
2019-02-19T01:04:12.384Z,0
2019-02-19T01:05:12.124Z,0
2019-02-19T01:06:12.105Z,0
2019-02-19T01:07:12.338Z,0
2019-02-19T01:08:12.313Z,0
2019-02-19T01:09:12.062Z,0
2019-02-19T01:10:12.293Z,0
2019-02-19T01:11:12.017Z,0
2019-02-19T01:12:12.260Z,0
2019-02-19T01:13:12.233Z,0
2019-02-19T01:14:12.230Z,0
2019-02-19T01:15:12.202Z,0
2019-02-19T01:16:13.104Z,0
2019-02-19T01:17:12.167Z,0
2019-02-19T01:18:11.910Z,0
2019-02-19T01:19:12.138Z,0
2019-02-19T01:20:12.158Z,0
2019-02-19T01:21:11.866Z,0
2019-02-19T01:22:11.827Z,0
2019-02-19T01:23:12.069Z,0
2019-02-19T01:24:11.805Z,0
2019-02-19T01:25:12.068Z,0
2019-02-19T01:26:11.774Z,0
2019-02-19T01:27:11.778Z,0
2019-02-19T01:28:11.799Z,0
2019-02-19T01:29:11.964Z,0
2019-02-19T01:30:11.704Z,0
2019-02-19T01:31:11.929Z,0
2019-02-19T01:32:11.666Z,0
2019-02-19T01:33:11.657Z,0
2019-02-19T01:34:11.883Z,0
2019-02-19T01:35:11.858Z,0
2019-02-19T01:36:11.601Z,0
2019-02-19T01:37:11.580Z,0
2019-02-19T01:38:11.569Z,0
2019-02-19T01:39:11.809Z,0
2019-02-19T01:40:11.784Z,0
2019-02-19T01:41:11.771Z,0
2019-02-19T01:42:11.741Z,0
2019-02-19T01:43:11.740Z,0
2019-02-19T01:44:11.706Z,0
2019-02-19T01:45:11.711Z,0
2019-02-19T01:46:11.679Z,0
2019-02-19T01:47:11.676Z,0
2019-02-19T01:48:11.647Z,0
2019-02-19T01:49:11.625Z,0
2019-02-19T01:50:11.366Z,0
2019-02-19T01:51:11.340Z,0
2019-02-19T01:52:11.568Z,0
2019-02-19T01:53:11.563Z,0
2019-02-19T01:54:11.543Z,0
2019-02-19T01:55:11.443Z,0
2019-02-19T01:56:11.314Z,0
2019-02-19T01:57:11.490Z,0
2019-02-19T01:58:11.482Z,0
2019-02-19T01:59:11.462Z,0
2019-02-19T02:00:11.453Z,0
2019-02-19T02:01:11.457Z,0
2019-02-19T02:02:11.421Z,0
2019-02-19T02:03:11.399Z,0
2019-02-19T02:04:11.391Z,0
2019-02-19T02:05:11.379Z,0
2019-02-19T02:06:11.341Z,0
2019-02-19T02:07:11.760Z,0
2019-02-19T02:08:11.316Z,0
2019-02-19T02:09:11.290Z,0
2019-02-19T02:10:11.323Z,0
2019-02-19T02:11:11.264Z,0
2019-02-19T02:12:11.251Z,0
2019-02-19T02:13:11.233Z,0
2019-02-19T02:14:11.250Z,0
2019-02-19T02:15:11.442Z,0
2019-02-19T02:16:10.937Z,0
2019-02-19T02:17:10.921Z,0
2019-02-19T02:18:11.137Z,0
2019-02-19T02:19:10.893Z,0
2019-02-19T02:20:10.877Z,0
2019-02-19T02:21:10.844Z,0
2019-02-19T02:22:10.839Z,0
2019-02-19T02:23:11.063Z,0
2019-02-19T02:24:10.566Z,0
2019-02-19T02:25:11.028Z,0
2019-02-19T02:26:11.018Z,0
2019-02-19T02:27:11.014Z,0
2019-02-19T02:28:10.980Z,0
2019-02-19T02:29:10.735Z,0
2019-02-19T02:30:11.057Z,0
2019-02-19T02:31:10.945Z,0
2019-02-19T02:32:10.954Z,0
2019-02-19T02:33:10.936Z,0
2019-02-19T02:34:10.902Z,0
2019-02-19T02:35:13.626Z,0
2019-02-19T02:36:10.647Z,0
2019-02-19T02:37:10.879Z,0
2019-02-19T02:38:10.581Z,0
2019-02-19T02:39:10.809Z,0
2019-02-19T02:40:10.808Z,0
2019-02-19T02:41:10.851Z,0
2019-02-19T02:42:10.790Z,0
2019-02-19T02:43:10.800Z,0
2019-02-19T02:44:10.728Z,0
2019-02-19T02:45:10.475Z,0
2019-02-19T02:46:10.725Z,0
2019-02-19T02:47:10.709Z,0
2019-02-19T02:48:10.693Z,0
2019-02-19T02:49:10.667Z,0
2019-02-19T02:50:10.665Z,0
2019-02-19T02:51:10.643Z,0
2019-02-19T02:52:10.367Z,0
2019-02-19T02:53:10.598Z,0
2019-02-19T02:54:10.337Z,0
2019-02-19T02:55:10.347Z,0
2019-02-19T02:56:10.622Z,0
2019-02-19T02:57:10.543Z,0
2019-02-19T02:58:10.505Z,0
2019-02-19T02:59:10.527Z,0
2019-02-19T03:00:10.253Z,0
2019-02-19T03:01:10.515Z,0
2019-02-19T03:02:10.467Z,0
2019-02-19T03:03:10.465Z,0
2019-02-19T03:04:10.183Z,0
2019-02-19T03:05:10.411Z,0
2019-02-19T03:06:10.147Z,0
2019-02-19T03:07:10.125Z,0
2019-02-19T03:08:10.349Z,0
2019-02-19T03:09:10.338Z,0
2019-02-19T03:10:10.324Z,0
2019-02-19T03:11:10.304Z,0
2019-02-19T03:12:10.067Z,0
2019-02-19T03:13:10.398Z,0
2019-02-19T03:14:10.260Z,0
2019-02-19T03:15:10.255Z,0
2019-02-19T03:16:12.256Z,0
2019-02-19T03:17:09.985Z,0
2019-02-19T03:18:10.212Z,0
2019-02-19T03:19:10.202Z,0
2019-02-19T03:20:09.681Z,0
2019-02-19T03:21:10.153Z,0
2019-02-19T03:22:10.201Z,0
2019-02-19T03:23:10.176Z,0
2019-02-19T03:24:10.137Z,0
2019-02-19T03:25:10.148Z,0
2019-02-19T03:26:09.882Z,0
2019-02-19T03:27:09.805Z,0
2019-02-19T03:28:09.782Z,0
2019-02-19T03:29:10.019Z,0
2019-02-19T03:30:09.814Z,0
2019-02-19T03:31:10.010Z,0
2019-02-19T03:32:09.811Z,0
2019-02-19T03:33:10.038Z,0
2019-02-19T03:34:09.983Z,0
2019-02-19T03:35:09.726Z,0
2019-02-19T03:36:09.818Z,0
2019-02-19T03:37:09.902Z,0
2019-02-19T03:38:09.897Z,0
2019-02-19T03:39:09.883Z,0
2019-02-19T03:40:10.296Z,0
2019-02-19T03:41:09.827Z,0
2019-02-19T03:42:09.591Z,0
2019-02-19T03:43:09.554Z,0
2019-02-19T03:44:09.537Z,0
2019-02-19T03:45:09.897Z,0
2019-02-19T03:46:18.597Z,0
2019-02-19T03:47:09.731Z,0
2019-02-19T03:48:09.713Z,0
2019-02-19T03:49:09.455Z,0
2019-02-19T03:50:09.675Z,0
2019-02-19T03:51:09.671Z,0
2019-02-19T03:52:09.685Z,0
2019-02-19T03:53:09.623Z,0
2019-02-19T03:54:09.613Z,0
2019-02-19T03:55:09.564Z,0
2019-02-19T03:56:09.653Z,0
2019-02-19T03:57:09.577Z,0
2019-02-19T03:58:09.549Z,0
2019-02-19T03:59:09.294Z,0
2019-02-19T04:00:09.546Z,0
2019-02-19T04:01:09.503Z,0
2019-02-19T04:02:09.237Z,0
2019-02-19T04:03:09.233Z,0
2019-02-19T04:04:09.465Z,0
2019-02-19T04:05:09.198Z,0
2019-02-19T04:06:09.437Z,0
2019-02-19T04:07:09.153Z,0
2019-02-19T04:08:09.387Z,0
2019-02-19T04:09:09.420Z,0
2019-02-19T04:10:09.367Z,0
2019-02-19T04:11:09.085Z,0
2019-02-19T04:12:09.332Z,0
2019-02-19T04:13:09.313Z,0
2019-02-19T04:14:09.083Z,0
2019-02-19T04:15:09.361Z,0
2019-02-19T04:16:09.270Z,0
2019-02-19T04:17:09.270Z,0
2019-02-19T04:18:09.243Z,0
2019-02-19T04:19:09.209Z,0
2019-02-19T04:20:09.212Z,0
2019-02-19T04:21:08.932Z,0
2019-02-19T04:22:09.178Z,0
2019-02-19T04:23:08.899Z,0
2019-02-19T04:24:09.162Z,0
2019-02-19T04:25:09.131Z,0
2019-02-19T04:26:08.766Z,0
2019-02-19T04:27:09.102Z,0
2019-02-19T04:28:08.865Z,0
2019-02-19T04:29:08.553Z,0
2019-02-19T04:30:09.027Z,0
2019-02-19T04:31:09.030Z,0
2019-02-19T04:32:09.000Z,0
2019-02-19T04:33:09.004Z,0
2019-02-19T04:34:08.719Z,0
2019-02-19T04:35:08.957Z,0
2019-02-19T04:36:08.934Z,0
2019-02-19T04:37:08.665Z,0
2019-02-19T04:38:08.948Z,0
2019-02-19T04:39:08.653Z,0
2019-02-19T04:40:08.943Z,0
2019-02-19T04:41:08.856Z,0
2019-02-19T04:42:08.845Z,0
2019-02-19T04:43:08.571Z,0
2019-02-19T04:44:08.562Z,0
2019-02-19T04:45:08.782Z,0
2019-02-19T04:46:08.801Z,0
2019-02-19T04:47:08.772Z,0
2019-02-19T04:48:08.522Z,0
2019-02-19T04:49:08.505Z,0
2019-02-19T04:50:08.732Z,0
2019-02-19T04:51:08.728Z,0
2019-02-19T04:52:08.684Z,0
2019-02-19T04:53:08.441Z,0
2019-02-19T04:54:08.410Z,0
2019-02-19T04:55:08.628Z,0
2019-02-19T04:56:08.368Z,0
2019-02-19T04:57:08.612Z,0
2019-02-19T04:58:08.588Z,0
2019-02-19T04:59:08.569Z,0
2019-02-19T05:00:08.308Z,0
2019-02-19T05:01:08.029Z,0
2019-02-19T05:02:08.508Z,0
2019-02-19T05:03:08.508Z,0
2019-02-19T05:04:08.485Z,0
2019-02-19T05:05:07.996Z,0
2019-02-19T05:06:08.458Z,0
2019-02-19T05:07:08.587Z,0
2019-02-19T05:08:08.432Z,0
2019-02-19T05:09:08.441Z,0
2019-02-19T05:10:08.400Z,0
2019-02-19T05:11:08.367Z,0
2019-02-19T05:12:08.373Z,0
2019-02-19T05:13:08.348Z,0
2019-02-19T05:14:08.324Z,0
2019-02-19T05:15:08.105Z,0
2019-02-19T05:16:08.291Z,0
2019-02-19T05:17:08.051Z,0
2019-02-19T05:18:07.767Z,0
2019-02-19T05:19:08.016Z,0
2019-02-19T05:20:08.233Z,0
2019-02-19T05:21:08.243Z,0
2019-02-19T05:22:08.346Z,0
2019-02-19T05:23:09.955Z,0
2019-02-19T05:24:08.173Z,0
2019-02-19T05:25:08.133Z,0
2019-02-19T05:26:08.137Z,0
2019-02-19T05:27:08.114Z,0
2019-02-19T05:28:08.127Z,0
2019-02-19T05:29:08.078Z,0
2019-02-19T05:30:08.105Z,0
2019-02-19T05:31:08.044Z,0
2019-02-19T05:32:08.057Z,0
2019-02-19T05:33:08.023Z,0
2019-02-19T05:34:07.780Z,0
2019-02-19T05:35:07.764Z,0
2019-02-19T05:36:09.086Z,0
2019-02-19T05:37:07.943Z,0
2019-02-19T05:38:07.941Z,0
2019-02-19T05:39:07.913Z,0
2019-02-19T05:40:07.913Z,0
2019-02-19T05:41:07.880Z,0
2019-02-19T05:42:07.875Z,0
2019-02-19T05:43:08.738Z,0
2019-02-19T05:44:07.845Z,0
2019-02-19T05:45:07.815Z,0
2019-02-19T05:46:07.800Z,0
2019-02-19T05:47:07.805Z,0
2019-02-19T05:48:10.048Z,0
2019-02-19T05:49:07.755Z,0
2019-02-19T05:50:07.767Z,0
2019-02-19T05:51:07.484Z,0
2019-02-19T05:52:07.703Z,0
2019-02-19T05:53:07.697Z,0
2019-02-19T05:54:07.694Z,0
2019-02-19T05:55:07.668Z,0
2019-02-19T05:56:07.398Z,0
2019-02-19T05:57:07.623Z,0
2019-02-19T05:58:07.762Z,0
2019-02-19T05:59:07.596Z,0
2019-02-19T06:00:07.591Z,0
2019-02-19T06:01:07.575Z,0
2019-02-19T06:02:07.540Z,0
2019-02-19T06:03:07.298Z,0
2019-02-19T06:04:07.508Z,0
2019-02-19T06:05:08.276Z,0
2019-02-19T06:06:07.474Z,0
2019-02-19T06:07:07.480Z,0
2019-02-19T06:08:07.455Z,5
2019-02-19T06:09:07.181Z,5
2019-02-19T06:10:07.359Z,5
2019-02-19T06:11:07.160Z,5
2019-02-19T06:12:06.889Z,5
2019-02-19T06:13:07.378Z,5
2019-02-19T06:14:06.867Z,5
2019-02-19T06:15:07.414Z,5
2019-02-19T06:16:07.334Z,5
2019-02-19T06:17:08.359Z,10
2019-02-19T06:18:07.039Z,10
2019-02-19T06:19:07.021Z,10
2019-02-19T06:20:07.467Z,10
2019-02-19T06:21:06.742Z,10
2019-02-19T06:22:07.230Z,10
2019-02-19T06:23:07.233Z,15
2019-02-19T06:24:07.207Z,15
2019-02-19T06:25:07.491Z,15
2019-02-19T06:26:07.176Z,15
2019-02-19T06:27:06.656Z,15
2019-02-19T06:28:06.922Z,20
2019-02-19T06:29:07.469Z,20
2019-02-19T06:30:07.100Z,20
2019-02-19T06:31:07.079Z,20
2019-02-19T06:32:07.064Z,20
2019-02-19T06:33:07.153Z,25
2019-02-19T06:34:06.835Z,25
2019-02-19T06:35:07.013Z,25
2019-02-19T06:36:06.493Z,30
2019-02-19T06:37:06.480Z,30
2019-02-19T06:38:06.719Z,30
2019-02-19T06:39:06.961Z,30
2019-02-19T06:40:06.684Z,35
2019-02-19T06:41:06.849Z,35
2019-02-19T06:42:06.900Z,35
2019-02-19T06:43:06.636Z,35
2019-02-19T06:44:06.866Z,35
2019-02-19T06:45:06.853Z,40
2019-02-19T06:46:06.832Z,40
2019-02-19T06:47:15.113Z,40
2019-02-19T06:48:06.549Z,40
2019-02-19T06:49:06.782Z,40
2019-02-19T06:50:06.762Z,45
2019-02-19T06:51:06.501Z,45
2019-02-19T06:52:06.517Z,45
2019-02-19T06:53:06.616Z,45
2019-02-19T06:54:06.730Z,50
2019-02-19T06:55:06.458Z,50
2019-02-19T06:56:06.422Z,50
2019-02-19T06:57:06.690Z,50
2019-02-19T06:58:06.638Z,50
2019-02-19T06:59:06.622Z,55
2019-02-19T07:00:06.611Z,55
2019-02-19T07:01:06.589Z,55
2019-02-19T07:02:06.569Z,55
2019-02-19T07:03:06.326Z,55
2019-02-19T07:04:06.542Z,60
2019-02-19T07:05:06.529Z,60
2019-02-19T07:06:06.536Z,60
2019-02-19T07:07:06.492Z,60
2019-02-19T07:08:06.510Z,60
2019-02-19T07:09:06.470Z,60
2019-02-19T07:10:06.497Z,60
2019-02-19T07:11:06.429Z,65
2019-02-19T07:12:08.341Z,65
2019-02-19T07:13:06.410Z,65
2019-02-19T07:14:06.381Z,65
2019-02-19T07:15:06.373Z,70
2019-02-19T07:16:06.363Z,70
2019-02-19T07:17:06.341Z,70
2019-02-19T07:18:06.359Z,75
2019-02-19T07:19:06.307Z,75
2019-02-19T07:20:06.313Z,80
2019-02-19T07:21:05.790Z,80
2019-02-19T07:22:06.262Z,80
2019-02-19T07:23:06.272Z,85
2019-02-19T07:24:13.590Z,85
2019-02-19T07:25:06.210Z,90
2019-02-19T07:26:06.206Z,85
2019-02-19T07:27:06.190Z,90
2019-02-19T07:28:06.167Z,90
2019-02-19T07:29:06.146Z,90
2019-02-19T07:30:06.149Z,95
2019-02-19T07:31:06.113Z,95
2019-02-19T07:32:06.116Z,100
2019-02-19T07:33:06.095Z,100
2019-02-19T07:34:06.078Z,100
2019-02-19T07:35:06.075Z,105
2019-02-19T07:36:06.044Z,105
2019-02-19T07:37:06.030Z,105
2019-02-19T07:38:06.006Z,110
2019-02-19T07:39:05.770Z,115
2019-02-19T07:40:05.984Z,115
2019-02-19T07:41:06.000Z,115
2019-02-19T07:42:05.950Z,115
2019-02-19T07:43:05.687Z,120
2019-02-19T07:44:05.928Z,125
2019-02-19T07:45:05.903Z,125
2019-02-19T07:46:05.893Z,130
2019-02-19T07:47:05.634Z,130
2019-02-19T07:48:05.651Z,130
2019-02-19T07:49:05.882Z,135
2019-02-19T07:50:05.582Z,135
2019-02-19T07:51:05.585Z,135
2019-02-19T07:52:05.804Z,140
2019-02-19T07:53:05.790Z,140
2019-02-19T07:54:05.783Z,140
2019-02-19T07:55:05.759Z,145
2019-02-19T07:56:05.495Z,145
2019-02-19T07:57:05.725Z,145
2019-02-19T07:58:05.705Z,145
2019-02-19T07:59:05.701Z,145
2019-02-19T08:00:05.682Z,145
2019-02-19T08:01:05.419Z,150
2019-02-19T08:02:06.392Z,150
2019-02-19T08:03:07.158Z,155
2019-02-19T08:04:05.627Z,155
2019-02-19T08:05:05.607Z,150
2019-02-19T08:06:05.357Z,150
2019-02-19T08:07:05.578Z,150
2019-02-19T08:08:05.579Z,150
2019-02-19T08:09:05.551Z,150
2019-02-19T08:10:05.304Z,150
2019-02-19T08:11:05.528Z,150
2019-02-19T08:12:05.510Z,150
2019-02-19T08:13:05.241Z,150
2019-02-19T08:14:05.490Z,150
2019-02-19T08:15:05.534Z,155
2019-02-19T08:16:05.464Z,155
2019-02-19T08:17:05.449Z,155
2019-02-19T08:18:05.426Z,160
2019-02-19T08:19:05.210Z,160
2019-02-19T08:20:05.147Z,160
2019-02-19T08:21:05.388Z,165
2019-02-19T08:22:05.123Z,165
2019-02-19T08:23:05.139Z,165
2019-02-19T08:24:05.335Z,170
2019-02-19T08:25:05.091Z,175
2019-02-19T08:26:05.060Z,180
2019-02-19T08:27:05.050Z,185
2019-02-19T08:28:05.280Z,185
2019-02-19T08:29:21.277Z,190
2019-02-19T08:30:05.251Z,190
2019-02-19T08:31:05.272Z,190
2019-02-19T08:32:05.230Z,195
2019-02-19T08:33:05.242Z,195
2019-02-19T08:34:05.193Z,195
2019-02-19T08:35:05.182Z,195
2019-02-19T08:36:05.171Z,200
2019-02-19T08:37:05.158Z,205
2019-02-19T08:38:05.154Z,205
2019-02-19T08:39:05.134Z,210
2019-02-19T08:40:05.029Z,210
2019-02-19T08:41:05.107Z,210
2019-02-19T08:42:05.091Z,215
2019-02-19T08:43:05.063Z,210
2019-02-19T08:44:05.053Z,210
2019-02-19T08:45:05.134Z,210
2019-02-19T08:46:05.066Z,210
2019-02-19T08:47:05.031Z,210
2019-02-19T08:48:04.998Z,210
2019-02-19T08:49:04.997Z,210
2019-02-19T08:50:05.266Z,210
2019-02-19T08:51:04.968Z,205
2019-02-19T08:52:05.807Z,205
2019-02-19T08:53:04.939Z,210
2019-02-19T08:54:04.675Z,210
2019-02-19T08:55:05.065Z,210
2019-02-19T08:56:04.902Z,205
2019-02-19T08:57:04.683Z,210
2019-02-19T08:58:04.873Z,205
2019-02-19T08:59:04.895Z,210
2019-02-19T09:00:04.790Z,215
2019-02-19T09:01:04.574Z,215
2019-02-19T09:02:04.820Z,215
2019-02-19T09:03:04.809Z,220
2019-02-19T09:04:04.779Z,230
2019-02-19T09:05:04.796Z,240
2019-02-19T09:06:04.295Z,245
2019-02-19T09:07:04.747Z,255
2019-02-19T09:08:04.748Z,260
2019-02-19T09:09:04.720Z,265
2019-02-19T09:10:04.712Z,265
2019-02-19T09:11:04.445Z,265
2019-02-19T09:12:04.699Z,270
2019-02-19T09:13:04.461Z,270
2019-02-19T09:14:04.661Z,270
2019-02-19T09:15:04.654Z,275
2019-02-19T09:16:04.387Z,275
2019-02-19T09:17:04.634Z,275
2019-02-19T09:18:04.608Z,275
2019-02-19T09:19:04.592Z,270
2019-02-19T09:20:04.587Z,270
2019-02-19T09:21:04.610Z,270
2019-02-19T09:22:04.544Z,270
2019-02-19T09:23:04.592Z,270
2019-02-19T09:24:13.930Z,270
2019-02-19T09:25:04.522Z,265
2019-02-19T09:26:04.255Z,275
2019-02-19T09:27:04.490Z,275
2019-02-19T09:28:04.482Z,255
2019-02-19T09:29:04.460Z,235
2019-02-19T09:30:04.470Z,245
2019-02-19T09:31:04.196Z,250
2019-02-19T09:32:04.201Z,240
2019-02-19T09:33:04.415Z,230
2019-02-19T09:34:04.401Z,220
2019-02-19T09:35:04.402Z,210
2019-02-19T09:36:04.380Z,205
2019-02-19T09:37:04.367Z,190
2019-02-19T09:38:04.358Z,190
2019-02-19T09:39:04.342Z,205
2019-02-19T09:40:04.336Z,215
2019-02-19T09:41:04.061Z,210
2019-02-19T09:42:04.067Z,185
2019-02-19T09:43:04.044Z,170
2019-02-19T09:44:04.295Z,155
2019-02-19T09:45:03.775Z,135
2019-02-19T09:46:05.711Z,125
2019-02-19T09:47:04.010Z,125
2019-02-19T09:48:10.717Z,130
2019-02-19T09:49:04.222Z,125
2019-02-19T09:50:04.207Z,120
2019-02-19T09:51:03.961Z,110
2019-02-19T09:52:04.189Z,100
2019-02-19T09:53:09.307Z,95
2019-02-19T09:54:04.152Z,90
2019-02-19T09:55:04.162Z,90
2019-02-19T09:56:04.143Z,90
2019-02-19T09:57:04.170Z,100
2019-02-19T09:58:04.127Z,95
2019-02-19T09:59:04.103Z,105
2019-02-19T10:00:03.872Z,125
2019-02-19T10:01:04.070Z,145
2019-02-19T10:02:03.840Z,155
2019-02-19T10:03:03.823Z,170
2019-02-19T10:04:04.062Z,170
2019-02-19T10:05:04.037Z,165
2019-02-19T10:06:03.758Z,180
2019-02-19T10:07:03.753Z,205
2019-02-19T10:08:05.467Z,210
2019-02-19T10:09:04.030Z,215
2019-02-19T10:10:03.956Z,220
2019-02-19T10:11:03.946Z,225
2019-02-19T10:12:03.673Z,235
2019-02-19T10:13:03.915Z,260
2019-02-19T10:14:03.903Z,265
2019-02-19T10:15:03.904Z,270
2019-02-19T10:16:03.874Z,270
2019-02-19T10:17:03.887Z,250
2019-02-19T10:18:12.315Z,220
2019-02-19T10:19:03.839Z,210
2019-02-19T10:20:03.829Z,210
2019-02-19T10:21:04.603Z,205
2019-02-19T10:22:03.806Z,205
2019-02-19T10:23:03.541Z,190
2019-02-19T10:24:03.775Z,170
2019-02-19T10:25:03.808Z,150
2019-02-19T10:26:03.746Z,145
2019-02-19T10:27:03.500Z,145
2019-02-19T10:28:03.752Z,135
2019-02-19T10:29:03.718Z,120
2019-02-19T10:30:03.446Z,120
2019-02-19T10:31:03.698Z,125
2019-02-19T10:32:03.718Z,120
2019-02-19T10:33:03.664Z,115
2019-02-19T10:34:03.652Z,125
2019-02-19T10:35:03.651Z,135
2019-02-19T10:36:03.385Z,135
2019-02-19T10:37:03.633Z,135
2019-02-19T10:38:03.376Z,135
2019-02-19T10:39:03.584Z,145
2019-02-19T10:40:03.580Z,140
2019-02-19T10:41:03.577Z,135
2019-02-19T10:42:03.550Z,135
2019-02-19T10:43:03.549Z,140
2019-02-19T10:44:03.542Z,150
2019-02-19T10:45:03.509Z,160
2019-02-19T10:46:03.500Z,180
2019-02-19T10:47:03.477Z,205
2019-02-19T10:48:03.519Z,210
2019-02-19T10:49:03.459Z,205
2019-02-19T10:50:03.481Z,215
2019-02-19T10:51:03.454Z,210
2019-02-19T10:52:03.425Z,190
2019-02-19T10:53:03.412Z,200
2019-02-19T10:54:03.402Z,215
2019-02-19T10:55:03.389Z,200
2019-02-19T10:56:03.383Z,180
2019-02-19T10:57:03.110Z,165
2019-02-19T10:58:03.365Z,135
2019-02-19T10:59:03.397Z,140
2019-02-19T11:00:03.073Z,145
2019-02-19T11:01:03.325Z,165
2019-02-19T11:02:03.298Z,195
2019-02-19T11:03:03.038Z,205
2019-02-19T11:04:03.034Z,235
2019-02-19T11:05:03.021Z,250
2019-02-19T11:06:03.038Z,235
2019-02-19T11:07:02.740Z,205
2019-02-19T11:08:02.985Z,165
2019-02-19T11:09:03.227Z,135
2019-02-19T11:10:02.724Z,115
2019-02-19T11:11:03.193Z,110
2019-02-19T11:12:05.201Z,110
2019-02-19T11:13:02.936Z,115
2019-02-19T11:14:03.158Z,120
2019-02-19T11:15:02.889Z,115
2019-02-19T11:16:03.450Z,110
2019-02-19T11:17:02.863Z,110
2019-02-19T11:18:03.782Z,110
2019-02-19T11:19:03.082Z,110
2019-02-19T11:20:02.712Z,100
2019-02-19T11:21:03.065Z,100
2019-02-19T11:22:03.050Z,100
2019-02-19T11:23:02.804Z,100
2019-02-19T11:24:03.044Z,110
2019-02-19T11:25:03.053Z,110
2019-02-19T11:26:03.009Z,120
2019-02-19T11:27:02.771Z,140
2019-02-19T11:28:02.980Z,150
2019-02-19T11:29:02.519Z,135
2019-02-19T11:30:02.948Z,110
2019-02-19T11:31:02.444Z,90
2019-02-19T11:32:02.424Z,85
2019-02-19T11:33:02.949Z,80
2019-02-19T11:34:02.893Z,75
2019-02-19T11:35:02.894Z,80
2019-02-19T11:36:04.370Z,80
2019-02-19T11:37:02.867Z,75
2019-02-19T11:38:02.844Z,80
2019-02-19T11:39:02.832Z,85
2019-02-19T11:40:02.817Z,85
2019-02-19T11:41:02.560Z,70
2019-02-19T11:42:02.547Z,65
2019-02-19T11:43:02.778Z,65
2019-02-19T11:44:02.779Z,60
2019-02-19T11:45:02.857Z,60
2019-02-19T11:46:02.739Z,55
2019-02-19T11:47:02.724Z,60
2019-02-19T11:48:02.462Z,75
2019-02-19T11:49:03.432Z,85
2019-02-19T11:50:02.687Z,100
2019-02-19T11:51:02.728Z,105
2019-02-19T11:52:02.683Z,100
2019-02-19T11:53:02.442Z,100
2019-02-19T11:54:02.387Z,90
2019-02-19T11:55:02.368Z,80
2019-02-19T11:56:02.613Z,80
2019-02-19T11:57:02.599Z,75
2019-02-19T11:58:02.598Z,70
2019-02-19T11:59:02.605Z,65
2019-02-19T12:00:02.302Z,65
2019-02-19T12:01:02.599Z,65
2019-02-19T12:02:02.276Z,60
2019-02-19T12:03:02.510Z,60
2019-02-19T12:04:02.506Z,60
2019-02-19T12:05:02.242Z,60
2019-02-19T12:06:02.271Z,65
2019-02-19T12:07:02.466Z,70
2019-02-19T12:08:02.443Z,75
2019-02-19T12:09:02.468Z,75
2019-02-19T12:10:02.467Z,70
2019-02-19T12:11:02.402Z,75
2019-02-19T12:12:02.156Z,85
2019-02-19T12:13:02.395Z,105
2019-02-19T12:14:02.379Z,110
2019-02-19T12:15:02.357Z,95
2019-02-19T12:16:02.334Z,115
2019-02-19T12:17:02.085Z,100
2019-02-19T12:18:02.324Z,80
2019-02-19T12:19:02.295Z,70
2019-02-19T12:20:02.309Z,65
2019-02-19T12:21:02.285Z,60
2019-02-19T12:22:02.258Z,55
2019-02-19T12:23:02.006Z,50
2019-02-19T12:24:02.238Z,45
2019-02-19T12:25:02.267Z,40
2019-02-19T12:26:02.212Z,40
2019-02-19T12:27:02.180Z,40
2019-02-19T12:28:03.390Z,40
2019-02-19T12:29:02.153Z,45
2019-02-19T12:30:01.937Z,45
2019-02-19T12:31:02.150Z,45
2019-02-19T12:32:01.867Z,45
2019-02-19T12:33:02.111Z,45
2019-02-19T12:34:01.859Z,50
2019-02-19T12:35:02.078Z,45
2019-02-19T12:36:02.061Z,35
2019-02-19T12:37:02.059Z,30
2019-02-19T12:38:02.068Z,35
2019-02-19T12:39:02.036Z,35
2019-02-19T12:40:02.011Z,35
2019-02-19T12:41:02.050Z,40
2019-02-19T12:42:01.986Z,45
2019-02-19T12:43:02.010Z,45
2019-02-19T12:44:01.956Z,40
2019-02-19T12:45:01.941Z,40
2019-02-19T12:46:01.678Z,45
2019-02-19T12:47:01.926Z,45
2019-02-19T12:48:01.916Z,50
2019-02-19T12:49:04.147Z,50
2019-02-19T12:50:01.885Z,50
2019-02-19T12:51:01.865Z,50
2019-02-19T12:52:02.723Z,50
2019-02-19T12:53:01.831Z,50
2019-02-19T12:54:01.568Z,45
2019-02-19T12:55:01.324Z,45
2019-02-19T12:56:01.802Z,45
2019-02-19T12:57:01.539Z,45
2019-02-19T12:58:01.515Z,50
2019-02-19T12:59:01.774Z,50
2019-02-19T13:00:06.294Z,50
2019-02-19T13:01:01.729Z,55
2019-02-19T13:02:01.479Z,55
2019-02-19T13:03:01.442Z,55
2019-02-19T13:04:01.672Z,50
2019-02-19T13:05:01.665Z,50
2019-02-19T13:06:01.656Z,45
2019-02-19T13:07:01.635Z,50
2019-02-19T13:08:01.620Z,45
2019-02-19T13:09:01.606Z,45
2019-02-19T13:10:01.585Z,50
2019-02-19T13:11:01.586Z,50
2019-02-19T13:12:01.342Z,45
2019-02-19T13:13:01.565Z,45
2019-02-19T13:14:01.058Z,40
2019-02-19T13:15:01.524Z,45
2019-02-19T13:16:01.524Z,45
2019-02-19T13:17:01.258Z,40
2019-02-19T13:18:01.480Z,45
2019-02-19T13:19:10.302Z,55
2019-02-19T13:20:01.496Z,50
2019-02-19T13:21:01.193Z,55
2019-02-19T13:22:01.424Z,60
2019-02-19T13:23:01.184Z,60
2019-02-19T13:24:01.384Z,60
2019-02-19T13:25:01.140Z,55
2019-02-19T13:26:01.379Z,55
2019-02-19T13:27:01.392Z,60
2019-02-19T13:28:01.342Z,55
2019-02-19T13:29:01.353Z,60
2019-02-19T13:30:01.133Z,65
2019-02-19T13:31:01.295Z,70
2019-02-19T13:32:01.294Z,75
2019-02-19T13:33:01.018Z,75
2019-02-19T13:34:01.260Z,75
2019-02-19T13:35:01.260Z,65
2019-02-19T13:36:01.219Z,65
2019-02-19T13:37:01.205Z,75
2019-02-19T13:38:01.181Z,75
2019-02-19T13:39:00.926Z,75
2019-02-19T13:40:01.155Z,75
2019-02-19T13:41:01.221Z,85
2019-02-19T13:42:01.120Z,90
2019-02-19T13:43:00.874Z,100
2019-02-19T13:44:01.097Z,130
2019-02-19T13:45:00.832Z,150
2019-02-19T13:46:01.079Z,180
2019-02-19T13:47:01.063Z,200
2019-02-19T13:48:08.300Z,210
2019-02-19T13:49:01.026Z,210
2019-02-19T13:50:01.011Z,210
2019-02-19T13:51:00.750Z,205
2019-02-19T13:52:00.745Z,195
2019-02-19T13:53:00.967Z,190
2019-02-19T13:54:00.948Z,175
2019-02-19T13:55:00.690Z,150
2019-02-19T13:56:00.916Z,130
2019-02-19T13:57:00.672Z,110
2019-02-19T13:58:02.417Z,100
2019-02-19T13:59:00.642Z,90
2019-02-19T14:00:00.625Z,90
2019-02-19T14:01:00.609Z,100
2019-02-19T14:02:00.848Z,110
2019-02-19T14:03:00.822Z,110
2019-02-19T14:04:00.312Z,105
2019-02-19T14:05:00.789Z,95
2019-02-19T14:06:00.539Z,90
2019-02-19T14:07:00.516Z,90
2019-02-19T14:08:00.509Z,85
2019-02-19T14:09:00.734Z,90
2019-02-19T14:10:00.729Z,95
2019-02-19T14:11:00.719Z,95
2019-02-19T14:12:00.449Z,90
2019-02-19T14:13:00.424Z,75
2019-02-19T14:14:00.658Z,55
2019-02-19T14:15:00.398Z,50
2019-02-19T14:16:00.638Z,50
2019-02-19T14:17:01.721Z,40
2019-02-19T14:18:00.356Z,40
2019-02-19T14:19:00.595Z,40